This is the latest recevied weather packets stored in our database for station/object DC1MAK-13. If no packets are shown the sender has not sent any weather packets the latest 10 day(s).
| Time | Temp. | Humidity | Pressure | Rain* | Wind** | Luminosity | Snow |
|---|---|---|---|---|---|---|---|
| 1777408599 | 13.33° C | 48% | 987.6 hPa | - | - | - | - |
| 1777407987 | 13.33° C | 49% | 987.5 hPa | - | - | - | - |
| 1777407684 | 13.33° C | 51% | 987.5 hPa | - | - | - | - |
| 1777407079 | 13.33° C | 55% | 987.5 hPa | - | - | - | - |
| 1777406779 | 13.33° C | 54% | 987.5 hPa | - | - | - | - |
| 1777406469 | 13.33° C | 55% | 987.5 hPa | - | - | - | - |
| 1777406166 | 13.33° C | 53% | 987.5 hPa | - | - | - | - |
| 1777404951 | 13.89° C | 52% | 987.3 hPa | - | - | - | - |
| 1777404648 | 13.89° C | 50% | 987.3 hPa | - | - | - | - |
| 1777404344 | 13.89° C | 50% | 987.2 hPa | - | - | - | - |
| 1777403439 | 14.44° C | 48% | 987 hPa | - | - | - | - |
| 1777403130 | 14.44° C | 47% | 987 hPa | - | - | - | - |
| 1777402523 | 14.44° C | 46% | 986.9 hPa | - | - | - | - |
| 1777400399 | 15.56° C | 42% | 986.7 hPa | - | - | - | - |
| 1777397969 | 17.22° C | 36% | 986.3 hPa | - | - | - | - |
| 1777397059 | 17.22° C | 37% | 986.2 hPa | - | - | - | - |
| 1777396451 | 17.78° C | 35% | 986.1 hPa | - | - | - | - |
| 1777396147 | 17.78° C | 35% | 986 hPa | - | - | - | - |
| 1777394933 | 18.33° C | 35% | 986 hPa | - | - | - | - |
| 1777393419 | 19.44° C | 32% | 985.9 hPa | - | - | - | - |
| 1777389468 | 21.67° C | 27% | 985.7 hPa | - | - | - | - |
| 1777387950 | 22.78° C | 26% | 985.7 hPa | - | - | - | - |
| 1777387343 | 21.67° C | 27% | 985.8 hPa | - | - | - | - |
| 1777386432 | 21.11° C | 31% | 985.9 hPa | - | - | - | - |
| 1777385825 | 21.67° C | 31% | 985.8 hPa | - | - | - | - |
* Rain since midnight (hover to see other rain measurements)
** Current wind speed in m/s (hover to see current wind gust speed)